METAR Data
IDs: Format: Raw Decoded Include TAF

Data at: 1234 UTC 21 Jan 2020

K4R5 211215Z AUTO 21007KT 170V240 10SM CLR M13/M16 A3036 RMK AO2 T11291157
K4R5 211155Z AUTO 22005KT 10SM CLR M13/M16 A3037 RMK AO2 T11321160
K4R5 211135Z AUTO 22004KT 10SM CLR M13/M16 A3038 RMK AO2 T11321161
K4R5 211115Z AUTO 20005KT 10SM CLR M13/M16 A3037 RMK AO2 T11321160
K4R5 211055Z AUTO 19003KT 10SM CLR M13/M16 A3038 RMK AO2 T11321161
K4R5 211035Z AUTO 20003KT 10SM CLR M13/M16 A3039 RMK AO2 T11321161
K4R5 211015Z AUTO 19004KT 10SM CLR M13/M16 A3040 RMK AO2 T11321161
K4R5 210955Z AUTO 21005KT 10SM CLR M13/M16 A3042 RMK AO2 T11301160
K4R5 210935Z AUTO 21005KT 10SM CLR M13/M16 A3041 RMK AO2 T11281160
K4R5 210915Z AUTO 21005KT 10SM CLR M13/M16 A3042 RMK AO2 T11281159
K4R5 210855Z AUTO 20003KT 10SM CLR M13/M16 A3043 RMK AO2 T11261157
K4R5 210835Z AUTO 20004KT 10SM CLR M12/M15 A3044 RMK AO2 T11251155
K4R5 210815Z AUTO 19003KT 10SM CLR M12/M15 A3045 RMK AO2 T11221155
K4R5 210755Z AUTO 20005KT 10SM CLR M12/M15 A3044 RMK AO2 T11221153
K4R5 210735Z AUTO 21004KT 10SM CLR M12/M15 A3045 RMK AO2 T11211150
K4R5 210715Z AUTO 20004KT 10SM CLR M12/M15 A3045 RMK AO2 T11201149
K4R5 210655Z AUTO 21004KT 10SM CLR M11/M15 A3046 RMK AO2 T11131146
K4R5 210635Z AUTO 23005KT 10SM CLR M11/M14 A3048 RMK AO2 T11131145
K4R5 210615Z AUTO 22006KT 10SM CLR M11/M14 A3048 RMK AO2 T11121141
K4R5 210555Z AUTO 21005KT 10SM CLR M11/M14 A3049 RMK AO2 T11151142
K4R5 210535Z AUTO 20004KT 10SM CLR M11/M14 A3049 RMK AO2 T11101140
K4R5 210515Z AUTO 20005KT 10SM CLR M10/M14 A3050 RMK AO2 T11051138
K4R5 210455Z AUTO 22005KT 10SM CLR M11/M14 A3051 RMK AO2 T11061137
K4R5 210435Z AUTO 23004KT 10SM CLR M11/M14 A3052 RMK AO2 T11091136
K4R5 210415Z AUTO 00000KT 10SM CLR M11/M13 A3052 RMK AO2 T11071133
K4R5 210355Z AUTO 23003KT 10SM CLR M10/M13 A3053 RMK AO2 T11021128
K4R5 210335Z AUTO 19004KT 10SM CLR M10/M12 A3052 RMK AO2 T11001125
K4R5 210315Z AUTO 21004KT 10SM CLR M09/M12 A3052 RMK AO2 T10941121
K4R5 210255Z AUTO 20005KT 10SM CLR M09/M12 A3053 RMK AO2 T10911117
K4R5 210235Z AUTO 23005KT 10SM CLR M09/M12 A3053 RMK AO2 T10901116
K4R5 210215Z AUTO 23006KT 10SM BKN110 M09/M12 A3054 RMK AO2 T10901117
K4R5 210155Z AUTO 23005KT 10SM SCT110 M11/M12 A3055 RMK AO2 T11071122
K4R5 210135Z AUTO 23003KT 10SM CLR M14/M16 A3055 RMK AO2 T11411157
K4R5 210115Z AUTO 23004KT 10SM CLR M14/M15 A3055 RMK AO2 T11411155
K4R5 210055Z AUTO 00000KT 10SM CLR M14/M15 A3055 RMK AO2 T11451155
K4R5 210035Z AUTO 00000KT 10SM CLR M15/M16 A3055 RMK AO2 T11461156
K4R5 210015Z AUTO 00000KT 10SM CLR M14/M15 A3055 RMK AO2 T11361148
K4R5 202355Z AUTO 00000KT 10SM CLR M13/M14 A3056 RMK AO2 T11281144
K4R5 202335Z AUTO 00000KT 10SM CLR M11/M14 A3056 RMK AO2 T11111138
K4R5 202315Z AUTO 00000KT 10SM CLR M09/M13 A3055 RMK AO2 T10891130
K4R5 202255Z AUTO 18003KT 10SM CLR M09/M13 A3055 RMK AO2 T10861127
K4R5 202235Z AUTO 00000KT 10SM CLR M07/M13 A3056 RMK AO2 T10661129
K4R5 202215Z AUTO 20003KT 10SM CLR M05/M13 A3056 RMK AO2 T10551126
K4R5 202155Z AUTO 00000KT 10SM CLR M05/M13 A3057 RMK AO2 T10531130
K4R5 202135Z AUTO 00000KT 10SM CLR M05/M13 A3058 RMK AO2 T10521126
K4R5 202115Z AUTO 20003KT 10SM CLR M05/M13 A3058 RMK AO2 T10501130
K4R5 202055Z AUTO 21003KT 10SM CLR M05/M13 A3058 RMK AO2 T10501135
K4R5 202035Z AUTO 21003KT 10SM CLR M05/M14 A3058 RMK AO2 T10471140
K4R5 202015Z AUTO 00000KT 10SM SCT120 M05/M14 A3059 RMK AO2 T10471144
K4R5 201955Z AUTO 22004KT 10SM SCT120 M05/M14 A3060 RMK AO2 T10471145
K4R5 201935Z AUTO 26004KT 10SM BKN110 M05/M14 A3060 RMK AO2 T10511139
K4R5 201915Z AUTO 23003KT 10SM BKN110 M05/M13 A3060 RMK AO2 T10501131
K4R5 201855Z AUTO 27004KT 10SM BKN110 M05/M13 A3060 RMK AO2 T10531130
K4R5 201835Z AUTO 00000KT 10SM SCT110 M05/M13 A3061 RMK AO2 T10541127
K4R5 201815Z AUTO 25003KT 10SM CLR M06/M14 A3062 RMK AO2 T10601138
K4R5 201755Z AUTO 00000KT 10SM CLR M06/M13 A3063 RMK AO2 T10641135
K4R5 201735Z AUTO 00000KT 10SM CLR M07/M13 A3063 RMK AO2 T10671135
K4R5 201715Z AUTO 28003KT 10SM CLR M07/M14 A3064 RMK AO2 T10691137
K4R5 201655Z AUTO 00000KT 10SM CLR M07/M13 A3064 RMK AO2 T10721134
K4R5 201635Z AUTO 00000KT 10SM CLR M07/M13 A3065 RMK AO2 T10751132
K4R5 201615Z AUTO 00000KT 10SM CLR M08/M13 A3065 RMK AO2 T10761127
K4R5 201555Z AUTO 00000KT 10SM CLR M09/M12 A3064 RMK AO2 T10881119
K4R5 201535Z AUTO 21003KT 10SM CLR M10/M13 A3063 RMK AO2 T11041126
K4R5 201515Z AUTO 00000KT 10SM CLR M14/M15 A3063 RMK AO2 T11371153
K4R5 201455Z AUTO 00000KT 10SM CLR M16/M17 A3063 RMK AO2 T11581172
K4R5 201435Z AUTO 00000KT 10SM CLR M18/M20 A3062 RMK AO2 T11811199
K4R5 201415Z AUTO 22003KT 10SM CLR M19/M21 A3062 RMK AO2 T11921211
K4R5 201355Z AUTO 00000KT 10SM CLR M19/M21 A3062 RMK AO2 T11911208
K4R5 201335Z AUTO 00000KT 10SM CLR M19/M21 A3061 RMK AO2 T11921210
K4R5 201315Z AUTO 00000KT 10SM CLR M19/M21 A3060 RMK AO2 T11891207
K4R5 201255Z AUTO 00000KT 10SM CLR M18/M20 A3060 RMK AO2 T11841201
K4R5 201235Z AUTO 00000KT 10SM CLR M18/M20 A3060 RMK AO2 T11801197
K4R5 201215Z AUTO 00000KT 10SM CLR M17/M19 A3060 RMK AO2 T11751191
K4R5 201155Z AUTO 00000KT 10SM CLR M17/M19 A3059 RMK AO2 T11731189
K4R5 201135Z AUTO 00000KT 10SM CLR M15/M17 A3058 RMK AO2 T11531169
K4R5 201115Z AUTO 34003KT 10SM CLR M11/M15 A3058 RMK AO2 T11121147
K4R5 201055Z AUTO 00000KT 10SM CLR M10/M14 A3057 RMK AO2 T10991138
K4R5 201035Z AUTO 34005KT 10SM CLR M09/M13 A3057 RMK AO2 T10921133
K4R5 201015Z AUTO 34005KT 10SM SCT022 M09/M13 A3057 RMK AO2 T10911126
K4R5 200955Z AUTO 34004KT 10SM BKN022 M09/M11 A3057 RMK AO2 T10931115
K4R5 200935Z AUTO 35004KT 10SM SCT022 M09/M11 A3056 RMK AO2 T10941114
K4R5 200915Z AUTO 33003KT 10SM SCT022 M10/M12 A3056 RMK AO2 T11011118
K4R5 200855Z AUTO 33003KT 10SM CLR M13/M14 A3055 RMK AO2 T11281140
K4R5 200835Z AUTO 00000KT 10SM CLR M10/M12 A3055 RMK AO2 T11051122
K4R5 200815Z AUTO 35003KT 10SM CLR M09/M10 A3055 RMK AO2 T10901102
K4R5 200755Z AUTO 33003KT 10SM -SN CLR M12/M13 A3054 RMK AO2 T11191133
K4R5 200735Z AUTO 33003KT 10SM CLR M12/M14 A3053 RMK AO2 T11231137
K4R5 200715Z AUTO 34003KT 10SM CLR M09/M10 A3053 RMK AO2 T10871100
K4R5 200655Z AUTO 33004KT 10SM CLR M12/M13 A3053 RMK AO2 T11191130
K4R5 200635Z AUTO 00000KT 10SM CLR M13/M14 A3053 RMK AO2 T11261141
K4R5 200615Z AUTO 31003KT 10SM SCT110 M11/M12 A3053 RMK AO2 T11101122
K4R5 200555Z AUTO 31003KT 10SM SCT110 M12/M13 A3053 RMK AO2 T11201132
K4R5 200535Z AUTO 00000KT 10SM SCT110 M13/M14 A3054 RMK AO2 T11311144
K4R5 200515Z AUTO 00000KT 7SM -SN SCT095 SCT110 M13/M14 A3054 RMK AO2 T11301144
K4R5 200455Z AUTO 00000KT 7SM -SN SCT050 SCT090 BKN110 M12/M13 A3054 RMK AO2 T11161127
K4R5 200435Z AUTO 00000KT 7SM -SN BKN050 BKN110 M12/M13 A3054 RMK AO2 T11231134
K4R5 200415Z AUTO 00000KT 10SM BKN050 BKN070 OVC110 M12/M13 A3053 RMK AO2 T11211131
K4R5 200355Z AUTO 00000KT 10SM SCT023 BKN070 OVC100 M12/M13 A3053 RMK AO2 T11171128
K4R5 200335Z AUTO 00000KT 7SM -SN SCT023 BKN033 OVC055 M11/M12 A3053 RMK AO2 T11061117
K4R5 200315Z AUTO 00000KT 10SM SCT047 SCT060 OVC090 M10/M11 A3052 RMK AO2 T11041115
K4R5 200255Z AUTO 00000KT 7SM BKN090 OVC120 M10/M11 A3052 RMK AO2 T11011112
K4R5 200235Z AUTO 00000KT 10SM SCT095 OVC110 M10/M11 A3052 RMK AO2 T11011114
K4R5 200215Z AUTO 00000KT 10SM SCT050 SCT070 OVC110 M10/M11 A3051 RMK AO2 T11011115
K4R5 200155Z AUTO 00000KT 10SM SCT070 BKN100 OVC120 M10/M11 A3051 RMK AO2 T11021115
K4R5 200135Z AUTO 00000KT 10SM BKN110 M10/M12 A3050 RMK AO2 T11011116
K4R5 200115Z AUTO 00000KT 10SM SCT080 BKN110 M10/M11 A3050 RMK AO2 T10971113
K4R5 200055Z AUTO 00000KT 10SM SCT100 BKN120 M10/M12 A3050 RMK AO2 T10971118
K4R5 200035Z AUTO 00000KT 10SM BKN110 M09/M12 A3050 RMK AO2 T10881118